sensor_id;sensor_type;location;lat;lon;timestamp;noise_LAeq;noise_LA_min;noise_LA_max;noise_LA01;noise_LA95
45651;Laerm;31365;48.858;8.530;2023-07-20T00:01:26;42.17;34.69;45.11;;
45651;Laerm;31365;48.858;8.530;2023-07-20T00:03:55;38.47;28.67;42.41;;
45651;Laerm;31365;48.858;8.530;2023-07-20T00:06:25;40.58;29.92;56.14;;
45651;Laerm;31365;48.858;8.530;2023-07-20T00:08:54;37.58;28.67;42.47;;
45651;Laerm;31365;48.858;8.530;2023-07-20T00:11:26;40.00;29.92;43.94;;
45651;Laerm;31365;48.858;8.530;2023-07-20T00:13:56;40.90;29.92;48.52;;
45651;Laerm;31365;48.858;8.530;2023-07-20T00:16:24;54.69;32.93;78.17;;
45651;Laerm;31365;48.858;8.530;2023-07-20T00:18:53;38.31;29.92;48.52;;
45651;Laerm;31365;48.858;8.530;2023-07-20T00:21:21;37.77;28.67;42.93;;
45651;Laerm;31365;48.858;8.530;2023-07-20T00:23:50;39.04;28.67;52.69;;
45651;Laerm;31365;48.858;8.530;2023-07-20T00:26:19;54.80;30.89;81.38;;
45651;Laerm;31365;48.858;8.530;2023-07-20T00:28:50;56.30;29.92;79.50;;
45651;Laerm;31365;48.858;8.530;2023-07-20T00:31:21;50.52;29.92;70.20;;
45651;Laerm;31365;48.858;8.530;2023-07-20T00:33:49;37.78;29.92;42.76;;
45651;Laerm;31365;48.858;8.530;2023-07-20T00:36:19;38.22;29.92;44.90;;
45651;Laerm;31365;48.858;8.530;2023-07-20T00:38:47;38.03;29.92;42.82;;
45651;Laerm;31365;48.858;8.530;2023-07-20T00:41:16;53.52;31.68;76.58;;
45651;Laerm;31365;48.858;8.530;2023-07-20T00:43:45;48.19;31.68;67.92;;
45651;Laerm;31365;48.858;8.530;2023-07-20T00:46:14;51.55;32.35;70.38;;
45651;Laerm;31365;48.858;8.530;2023-07-20T00:48:44;38.11;30.89;43.63;;
45651;Laerm;31365;48.858;8.530;2023-07-20T00:51:13;53.97;29.92;74.95;;
45651;Laerm;31365;48.858;8.530;2023-07-20T00:53:42;38.32;28.67;42.71;;
45651;Laerm;31365;48.858;8.530;2023-07-20T00:56:10;38.05;29.92;42.41;;
45651;Laerm;31365;48.858;8.530;2023-07-20T00:58:40;38.64;30.89;43.99;;
45651;Laerm;31365;48.858;8.530;2023-07-20T01:01:08;38.91;30.89;51.05;;
45651;Laerm;31365;48.858;8.530;2023-07-20T01:03:39;38.38;30.89;44.39;;
45651;Laerm;31365;48.858;8.530;2023-07-20T01:06:24;38.27;31.68;42.98;;
45651;Laerm;31365;48.858;8.530;2023-07-20T01:09:07;38.44;31.68;43.39;;
45651;Laerm;31365;48.858;8.530;2023-07-20T01:11:43;39.52;33.90;55.98;;
45651;Laerm;31365;48.858;8.530;2023-07-20T01:14:18;39.05;31.68;42.76;;
45651;Laerm;31365;48.858;8.530;2023-07-20T01:16:46;39.72;32.35;43.29;;
45651;Laerm;31365;48.858;8.530;2023-07-20T01:19:17;38.57;31.68;42.76;;
45651;Laerm;31365;48.858;8.530;2023-07-20T01:21:56;38.72;30.89;44.90;;
45651;Laerm;31365;48.858;8.530;2023-07-20T01:25:07;39.68;31.68;45.65;;
45651;Laerm;31365;48.858;8.530;2023-07-20T01:31:21;55.17;33.44;77.69;;
45651;Laerm;31365;48.858;8.530;2023-07-20T01:33:56;38.97;32.35;43.63;;
45651;Laerm;31365;48.858;8.530;2023-07-20T01:36:30;38.77;32.35;45.63;;
45651;Laerm;31365;48.858;8.530;2023-07-20T01:38:59;62.07;32.58;83.50;;
45651;Laerm;31365;48.858;8.530;2023-07-20T01:43:58;38.83;32.35;42.47;;
45651;Laerm;31365;48.858;8.530;2023-07-20T01:46:28;39.13;33.55;43.24;;
45651;Laerm;31365;48.858;8.530;2023-07-20T01:48:58;38.87;32.35;43.14;;
45651;Laerm;31365;48.858;8.530;2023-07-20T01:51:26;39.06;31.68;43.68;;
45651;Laerm;31365;48.858;8.530;2023-07-20T01:53:55;54.17;31.68;73.81;;
45651;Laerm;31365;48.858;8.530;2023-07-20T01:56:23;52.28;32.35;73.93;;
45651;Laerm;31365;48.858;8.530;2023-07-20T01:58:53;38.44;31.68;42.47;;
45651;Laerm;31365;48.858;8.530;2023-07-20T02:01:21;38.67;31.68;42.53;;
45651;Laerm;31365;48.858;8.530;2023-07-20T02:03:51;38.79;31.68;42.03;;
45651;Laerm;31365;48.858;8.530;2023-07-20T02:06:21;39.79;32.35;45.27;;
45651;Laerm;31365;48.858;8.530;2023-07-20T02:08:50;50.15;32.35;68.47;;
45651;Laerm;31365;48.858;8.530;2023-07-20T02:11:19;52.16;33.44;71.26;;
45651;Laerm;31365;48.858;8.530;2023-07-20T02:13:47;57.10;35.66;76.31;;
45651;Laerm;31365;48.858;8.530;2023-07-20T02:16:15;52.10;29.92;72.29;;
45651;Laerm;31365;48.858;8.530;2023-07-20T02:18:44;38.51;31.68;42.16;;
45651;Laerm;31365;48.858;8.530;2023-07-20T02:21:14;42.75;31.68;61.79;;
45651;Laerm;31365;48.858;8.530;2023-07-20T02:23:42;60.16;33.44;80.60;;
45651;Laerm;31365;48.858;8.530;2023-07-20T02:26:11;49.60;35.94;70.55;;
45651;Laerm;31365;48.858;8.530;2023-07-20T02:28:39;38.82;32.93;42.53;;
45651;Laerm;31365;48.858;8.530;2023-07-20T02:31:08;58.36;35.66;78.47;;
45651;Laerm;31365;48.858;8.530;2023-07-20T02:33:37;40.53;33.90;48.34;;
45651;Laerm;31365;48.858;8.530;2023-07-20T02:36:05;50.31;35.94;69.17;;
45651;Laerm;31365;48.858;8.530;2023-07-20T02:38:36;53.50;36.20;75.81;;
45651;Laerm;31365;48.858;8.530;2023-07-20T02:41:04;43.18;36.20;47.00;;
45651;Laerm;31365;48.858;8.530;2023-07-20T02:43:33;49.08;38.05;70.36;;
45651;Laerm;31365;48.858;8.530;2023-07-20T02:48:32;38.81;31.68;42.53;;
45651;Laerm;31365;48.858;8.530;2023-07-20T02:51:01;49.68;31.68;70.12;;
45651;Laerm;31365;48.858;8.530;2023-07-20T02:53:29;50.61;35.94;71.85;;
45651;Laerm;31365;48.858;8.530;2023-07-20T02:55:59;39.54;33.44;42.82;;
45651;Laerm;31365;48.858;8.530;2023-07-20T02:58:27;48.12;33.44;69.36;;
45651;Laerm;31365;48.858;8.530;2023-07-20T03:00:56;61.34;34.69;81.87;;
45651;Laerm;31365;48.858;8.530;2023-07-20T03:03:24;54.60;34.31;71.81;;
45651;Laerm;31365;48.858;8.530;2023-07-20T03:05:53;39.77;33.55;44.11;;
45651;Laerm;31365;48.858;8.530;2023-07-20T03:08:23;40.25;30.89;62.02;;
45651;Laerm;31365;48.858;8.530;2023-07-20T03:10:52;58.15;35.94;74.64;;
45651;Laerm;31365;48.858;8.530;2023-07-20T03:13:25;53.49;35.94;71.22;;
45651;Laerm;31365;48.858;8.530;2023-07-20T03:15:53;53.38;34.31;74.02;;
45651;Laerm;31365;48.858;8.530;2023-07-20T03:18:22;57.94;36.20;77.80;;
45651;Laerm;31365;48.858;8.530;2023-07-20T03:20:51;59.47;40.33;78.18;;
45651;Laerm;31365;48.858;8.530;2023-07-20T03:23:19;57.69;35.36;75.31;;
45651;Laerm;31365;48.858;8.530;2023-07-20T03:25:49;52.32;36.91;70.92;;
45651;Laerm;31365;48.858;8.530;2023-07-20T03:28:17;56.88;36.45;73.48;;
45651;Laerm;31365;48.858;8.530;2023-07-20T03:30:53;60.51;39.34;79.96;;
45651;Laerm;31365;48.858;8.530;2023-07-20T03:33:26;58.33;38.21;76.81;;
45651;Laerm;31365;48.858;8.530;2023-07-20T03:35:58;59.42;35.94;79.31;;
45651;Laerm;31365;48.858;8.530;2023-07-20T03:38:27;57.76;37.52;75.29;;
45651;Laerm;31365;48.858;8.530;2023-07-20T03:40:58;61.85;38.05;82.53;;
45651;Laerm;31365;48.858;8.530;2023-07-20T03:43:28;59.88;36.91;77.44;;
45651;Laerm;31365;48.858;8.530;2023-07-20T03:45:58;55.20;38.05;73.65;;
45651;Laerm;31365;48.858;8.530;2023-07-20T03:48:27;60.94;39.58;76.48;;
45651;Laerm;31365;48.858;8.530;2023-07-20T03:50:56;61.75;37.32;79.50;;
45651;Laerm;31365;48.858;8.530;2023-07-20T03:53:25;58.36;37.52;78.64;;
45651;Laerm;31365;48.858;8.530;2023-07-20T03:55:54;60.75;36.69;77.74;;
45651;Laerm;31365;48.858;8.530;2023-07-20T03:58:23;60.19;38.95;76.36;;
45651;Laerm;31365;48.858;8.530;2023-07-20T04:00:53;57.65;37.52;76.41;;
45651;Laerm;31365;48.858;8.530;2023-07-20T04:03:24;56.64;42.03;72.09;;
45651;Laerm;31365;48.858;8.530;2023-07-20T04:05:54;61.69;38.95;76.55;;
45651;Laerm;31365;48.858;8.530;2023-07-20T04:08:23;63.07;37.32;79.23;;
45651;Laerm;31365;48.858;8.530;2023-07-20T04:10:52;61.72;38.81;77.76;;
45651;Laerm;31365;48.858;8.530;2023-07-20T04:13:22;59.17;36.45;75.69;;
45651;Laerm;31365;48.858;8.530;2023-07-20T04:15:50;60.21;39.21;76.28;;
45651;Laerm;31365;48.858;8.530;2023-07-20T04:18:19;61.78;38.95;78.74;;
45651;Laerm;31365;48.858;8.530;2023-07-20T04:20:48;60.11;36.56;77.94;;
45651;Laerm;31365;48.858;8.530;2023-07-20T04:23:16;61.83;38.21;77.43;;
45651;Laerm;31365;48.858;8.530;2023-07-20T04:25:45;62.39;41.22;77.71;;
45651;Laerm;31365;48.858;8.530;2023-07-20T04:28:14;63.82;41.30;75.61;;
45651;Laerm;31365;48.858;8.530;2023-07-20T04:30:49;62.63;38.81;78.51;;
45651;Laerm;31365;48.858;8.530;2023-07-20T04:33:19;56.39;38.67;73.32;;
45651;Laerm;31365;48.858;8.530;2023-07-20T04:35:51;63.56;40.53;77.39;;
45651;Laerm;31365;48.858;8.530;2023-07-20T04:38:24;64.21;40.62;79.82;;
45651;Laerm;31365;48.858;8.530;2023-07-20T04:41:09;65.31;41.82;82.53;;
45651;Laerm;31365;48.858;8.530;2023-07-20T04:43:43;63.48;39.57;78.62;;
45651;Laerm;31365;48.858;8.530;2023-07-20T04:46:16;64.00;42.76;82.23;;
45651;Laerm;31365;48.858;8.530;2023-07-20T04:48:47;63.12;40.33;81.77;;
45651;Laerm;31365;48.858;8.530;2023-07-20T04:51:17;68.07;39.92;88.19;;
45651;Laerm;31365;48.858;8.530;2023-07-20T04:53:50;66.31;41.68;85.39;;
45651;Laerm;31365;48.858;8.530;2023-07-20T04:56:18;63.56;42.71;77.40;;
45651;Laerm;31365;48.858;8.530;2023-07-20T04:58:48;61.38;38.67;78.93;;
45651;Laerm;31365;48.858;8.530;2023-07-20T05:01:17;66.42;42.71;78.14;;
45651;Laerm;31365;48.858;8.530;2023-07-20T05:03:46;63.86;40.03;79.11;;
45651;Laerm;31365;48.858;8.530;2023-07-20T05:06:14;66.77;41.96;87.41;;
45651;Laerm;31365;48.858;8.530;2023-07-20T05:08:44;64.44;42.29;81.36;;
45651;Laerm;31365;48.858;8.530;2023-07-20T05:11:12;61.83;41.22;78.15;;
45651;Laerm;31365;48.858;8.530;2023-07-20T05:13:41;64.44;38.81;78.31;;
45651;Laerm;31365;48.858;8.530;2023-07-20T05:16:09;64.00;41.75;81.49;;
45651;Laerm;31365;48.858;8.530;2023-07-20T05:18:38;63.23;40.03;78.79;;
45651;Laerm;31365;48.858;8.530;2023-07-20T05:21:07;62.34;39.46;77.97;;
45651;Laerm;31365;48.858;8.530;2023-07-20T05:23:35;64.40;43.49;81.49;;
45651;Laerm;31365;48.858;8.530;2023-07-20T05:26:05;66.90;44.35;84.60;;
45651;Laerm;31365;48.858;8.530;2023-07-20T05:28:34;65.19;42.35;78.28;;
45651;Laerm;31365;48.858;8.530;2023-07-20T05:31:03;63.83;41.75;77.40;;
45651;Laerm;31365;48.858;8.530;2023-07-20T05:33:33;63.47;41.68;76.73;;
45651;Laerm;31365;48.858;8.530;2023-07-20T05:36:01;62.98;43.29;76.81;;
45651;Laerm;31365;48.858;8.530;2023-07-20T05:38:30;65.50;43.24;82.51;;
45651;Laerm;31365;48.858;8.530;2023-07-20T05:41:00;64.60;43.58;76.16;;
45651;Laerm;31365;48.858;8.530;2023-07-20T05:43:32;72.44;42.71;92.10;;
45651;Laerm;31365;48.858;8.530;2023-07-20T05:46:00;64.79;42.53;80.27;;
45651;Laerm;31365;48.858;8.530;2023-07-20T05:48:29;63.33;42.41;75.58;;
45651;Laerm;31365;48.858;8.530;2023-07-20T05:50:57;64.72;41.89;77.62;;
45651;Laerm;31365;48.858;8.530;2023-07-20T05:53:25;61.65;38.95;75.05;;
45651;Laerm;31365;48.858;8.530;2023-07-20T05:55:54;63.88;43.09;76.38;;
45651;Laerm;31365;48.858;8.530;2023-07-20T05:58:23;65.36;43.24;78.96;;
45651;Laerm;31365;48.858;8.530;2023-07-20T06:00:53;61.33;38.67;76.72;;
45651;Laerm;31365;48.858;8.530;2023-07-20T06:03:22;62.67;41.14;79.44;;
45651;Laerm;31365;48.858;8.530;2023-07-20T06:05:51;62.32;41.61;76.08;;
45651;Laerm;31365;48.858;8.530;2023-07-20T06:08:20;61.77;41.22;76.05;;
45651;Laerm;31365;48.858;8.530;2023-07-20T06:10:50;62.36;43.05;79.09;;
45651;Laerm;31365;48.858;8.530;2023-07-20T06:13:19;61.84;40.23;78.41;;
45651;Laerm;31365;48.858;8.530;2023-07-20T06:15:47;63.98;39.08;81.38;;
45651;Laerm;31365;48.858;8.530;2023-07-20T06:18:17;59.80;38.95;76.81;;
45651;Laerm;31365;48.858;8.530;2023-07-20T06:20:51;61.14;43.34;74.93;;
45651;Laerm;31365;48.858;8.530;2023-07-20T06:23:19;60.49;38.81;76.19;;
45651;Laerm;31365;48.858;8.530;2023-07-20T06:25:48;58.61;39.34;77.92;;
45651;Laerm;31365;48.858;8.530;2023-07-20T06:28:17;60.65;38.52;77.04;;
45651;Laerm;31365;48.858;8.530;2023-07-20T06:30:46;64.33;42.59;77.90;;
45651;Laerm;31365;48.858;8.530;2023-07-20T06:36:27;62.75;41.89;77.43;;
45651;Laerm;31365;48.858;8.530;2023-07-20T06:38:56;58.61;39.81;75.67;;
45651;Laerm;31365;48.858;8.530;2023-07-20T06:41:28;60.47;38.05;76.53;;
45651;Laerm;31365;48.858;8.530;2023-07-20T06:43:59;60.56;38.37;76.38;;
45651;Laerm;31365;48.858;8.530;2023-07-20T06:48:57;61.53;40.53;73.30;;
45651;Laerm;31365;48.858;8.530;2023-07-20T06:51:30;61.80;41.96;78.18;;
45651;Laerm;31365;48.858;8.530;2023-07-20T06:53:59;59.68;39.58;76.27;;
45651;Laerm;31365;48.858;8.530;2023-07-20T06:56:28;59.55;42.03;76.74;;
45651;Laerm;31365;48.858;8.530;2023-07-20T06:58:59;60.94;39.70;79.62;;
45651;Laerm;31365;48.858;8.530;2023-07-20T07:01:30;62.46;42.35;77.85;;
45651;Laerm;31365;48.858;8.530;2023-07-20T07:03:58;60.68;37.70;77.33;;
45651;Laerm;31365;48.858;8.530;2023-07-20T07:06:27;60.67;40.53;77.24;;
45651;Laerm;31365;48.858;8.530;2023-07-20T07:08:58;58.18;36.91;75.74;;
45651;Laerm;31365;48.858;8.530;2023-07-20T07:11:26;62.43;39.34;81.10;;
45651;Laerm;31365;48.858;8.530;2023-07-20T07:13:55;61.47;39.68;78.22;;
45651;Laerm;31365;48.858;8.530;2023-07-20T07:16:23;63.56;41.14;78.93;;
45651;Laerm;31365;48.858;8.530;2023-07-20T07:18:52;59.76;37.88;75.89;;
45651;Laerm;31365;48.858;8.530;2023-07-20T07:21:26;65.59;41.46;87.62;;
45651;Laerm;31365;48.858;8.530;2023-07-20T07:23:54;58.09;38.60;76.10;;
45651;Laerm;31365;48.858;8.530;2023-07-20T07:26:26;58.21;40.43;72.11;;
45651;Laerm;31365;48.858;8.530;2023-07-20T07:28:55;59.27;40.71;77.30;;
45651;Laerm;31365;48.858;8.530;2023-07-20T07:31:25;61.46;37.88;81.39;;
45651;Laerm;31365;48.858;8.530;2023-07-20T07:33:53;60.63;38.37;77.28;;
45651;Laerm;31365;48.858;8.530;2023-07-20T07:36:22;59.08;40.33;73.62;;
45651;Laerm;31365;48.858;8.530;2023-07-20T07:38:52;60.76;39.58;82.08;;
45651;Laerm;31365;48.858;8.530;2023-07-20T07:41:23;63.38;42.22;81.80;;
45651;Laerm;31365;48.858;8.530;2023-07-20T07:43:52;60.06;41.38;75.67;;
45651;Laerm;31365;48.858;8.530;2023-07-20T07:46:21;55.77;38.05;70.61;;
45651;Laerm;31365;48.858;8.530;2023-07-20T07:48:49;61.55;41.06;74.32;;
45651;Laerm;31365;48.858;8.530;2023-07-20T07:51:18;64.56;43.49;80.10;;
45651;Laerm;31365;48.858;8.530;2023-07-20T07:53:46;60.57;40.98;78.06;;
45651;Laerm;31365;48.858;8.530;2023-07-20T07:56:16;61.97;40.33;79.14;;
45651;Laerm;31365;48.858;8.530;2023-07-20T07:58:49;57.91;36.69;76.16;;
45651;Laerm;31365;48.858;8.530;2023-07-20T08:01:20;60.67;37.52;76.08;;
45651;Laerm;31365;48.858;8.530;2023-07-20T08:03:49;62.80;44.43;76.67;;
45651;Laerm;31365;48.858;8.530;2023-07-20T08:06:18;60.40;38.67;75.38;;
45651;Laerm;31365;48.858;8.530;2023-07-20T08:08:46;60.91;37.52;77.64;;
45651;Laerm;31365;48.858;8.530;2023-07-20T08:11:15;63.83;41.82;79.51;;
45651;Laerm;31365;48.858;8.530;2023-07-20T08:13:45;58.34;38.52;72.35;;
45651;Laerm;31365;48.858;8.530;2023-07-20T08:16:13;63.26;40.71;81.35;;
45651;Laerm;31365;48.858;8.530;2023-07-20T08:18:44;60.38;40.43;76.56;;
45651;Laerm;31365;48.858;8.530;2023-07-20T08:21:12;64.00;43.29;79.52;;
45651;Laerm;31365;48.858;8.530;2023-07-20T08:23:41;61.35;41.30;75.74;;
45651;Laerm;31365;48.858;8.530;2023-07-20T08:26:09;61.18;41.53;73.04;;
45651;Laerm;31365;48.858;8.530;2023-07-20T08:28:38;56.45;35.66;82.45;;
45651;Laerm;31365;48.858;8.530;2023-07-20T08:31:06;58.02;40.23;72.45;;
45651;Laerm;31365;48.858;8.530;2023-07-20T08:33:35;62.60;41.89;76.68;;
45651;Laerm;31365;48.858;8.530;2023-07-20T08:36:05;62.35;42.98;77.07;;
45651;Laerm;31365;48.858;8.530;2023-07-20T08:38:38;60.69;37.70;77.16;;
45651;Laerm;31365;48.858;8.530;2023-07-20T08:41:07;62.35;40.80;78.06;;
45651;Laerm;31365;48.858;8.530;2023-07-20T08:43:37;62.58;40.33;77.76;;
45651;Laerm;31365;48.858;8.530;2023-07-20T08:46:10;58.92;40.80;75.02;;
45651;Laerm;31365;48.858;8.530;2023-07-20T08:48:41;61.93;39.34;81.05;;
45651;Laerm;31365;48.858;8.530;2023-07-20T08:51:12;65.18;38.52;84.00;;
45651;Laerm;31365;48.858;8.530;2023-07-20T08:53:41;60.83;41.22;78.38;;
45651;Laerm;31365;48.858;8.530;2023-07-20T08:56:10;66.47;42.74;84.24;;
45651;Laerm;31365;48.858;8.530;2023-07-20T08:58:41;61.05;42.47;76.66;;
45651;Laerm;31365;48.858;8.530;2023-07-20T09:01:12;61.91;40.43;80.52;;
45651;Laerm;31365;48.858;8.530;2023-07-20T09:03:42;57.34;39.70;74.34;;
45651;Laerm;31365;48.858;8.530;2023-07-20T09:06:15;60.10;39.70;75.94;;
45651;Laerm;31365;48.858;8.530;2023-07-20T09:08:43;58.62;41.68;73.21;;
45651;Laerm;31365;48.858;8.530;2023-07-20T09:11:12;65.05;42.22;82.70;;
45651;Laerm;31365;48.858;8.530;2023-07-20T09:13:41;60.63;38.52;74.59;;
45651;Laerm;31365;48.858;8.530;2023-07-20T09:16:13;59.68;39.92;78.53;;
45651;Laerm;31365;48.858;8.530;2023-07-20T09:18:42;65.02;45.48;76.78;;
45651;Laerm;31365;48.858;8.530;2023-07-20T09:28:12;64.08;43.99;82.22;;
45651;Laerm;31365;48.858;8.530;2023-07-20T09:30:41;62.60;46.61;73.76;;
45651;Laerm;31365;48.858;8.530;2023-07-20T09:33:18;63.60;44.62;75.36;;
45651;Laerm;31365;48.858;8.530;2023-07-20T09:40:10;60.93;40.43;80.16;;
45651;Laerm;31365;48.858;8.530;2023-07-20T09:42:43;65.85;40.62;84.85;;
45651;Laerm;31365;48.858;8.530;2023-07-20T09:45:34;61.02;39.21;78.18;;
45651;Laerm;31365;48.858;8.530;2023-07-20T09:48:07;61.87;41.30;75.75;;
45651;Laerm;31365;48.858;8.530;2023-07-20T09:50:40;63.49;42.29;80.14;;
45651;Laerm;31365;48.858;8.530;2023-07-20T09:53:12;62.74;39.81;83.05;;
45651;Laerm;31365;48.858;8.530;2023-07-20T09:55:43;63.75;40.43;80.29;;
45651;Laerm;31365;48.858;8.530;2023-07-20T09:58:13;60.42;42.22;73.19;;
45651;Laerm;31365;48.858;8.530;2023-07-20T10:00:42;61.39;40.80;75.27;;
45651;Laerm;31365;48.858;8.530;2023-07-20T10:03:19;61.13;39.58;74.98;;
45651;Laerm;31365;48.858;8.530;2023-07-20T10:05:54;58.14;37.70;72.13;;
45651;Laerm;31365;48.858;8.530;2023-07-20T10:08:25;61.54;39.70;75.10;;
45651;Laerm;31365;48.858;8.530;2023-07-20T10:11:02;60.07;38.52;73.50;;
45651;Laerm;31365;48.858;8.530;2023-07-20T10:13:37;61.47;41.22;76.79;;
45651;Laerm;31365;48.858;8.530;2023-07-20T10:16:11;60.33;38.37;81.34;;
45651;Laerm;31365;48.858;8.530;2023-07-20T10:19:03;58.96;38.21;76.20;;
45651;Laerm;31365;48.858;8.530;2023-07-20T10:21:59;60.07;38.21;78.47;;
45651;Laerm;31365;48.858;8.530;2023-07-20T10:24:31;61.33;41.68;79.43;;
45651;Laerm;31365;48.858;8.530;2023-07-20T10:27:01;59.13;39.70;78.54;;
45651;Laerm;31365;48.858;8.530;2023-07-20T10:29:32;60.57;39.92;77.19;;
45651;Laerm;31365;48.858;8.530;2023-07-20T10:32:02;58.96;39.58;73.40;;
45651;Laerm;31365;48.858;8.530;2023-07-20T10:34:30;63.96;38.05;83.88;;
45651;Laerm;31365;48.858;8.530;2023-07-20T10:36:59;62.20;42.59;77.46;;
45651;Laerm;31365;48.858;8.530;2023-07-20T10:39:31;65.37;41.75;84.53;;
45651;Laerm;31365;48.858;8.530;2023-07-20T10:42:01;66.32;41.68;84.36;;
45651;Laerm;31365;48.858;8.530;2023-07-20T10:44:31;62.47;37.52;80.94;;
45651;Laerm;31365;48.858;8.530;2023-07-20T10:47:01;62.60;41.82;80.22;;
45651;Laerm;31365;48.858;8.530;2023-07-20T10:49:33;58.35;36.91;77.70;;
45651;Laerm;31365;48.858;8.530;2023-07-20T10:52:05;57.59;38.21;74.95;;
45651;Laerm;31365;48.858;8.530;2023-07-20T10:54:47;61.10;39.46;75.30;;
45651;Laerm;31365;48.858;8.530;2023-07-20T10:57:29;73.19;40.98;98.11;;
45651;Laerm;31365;48.858;8.530;2023-07-20T11:00:12;61.90;41.38;76.90;;
45651;Laerm;31365;48.858;8.530;2023-07-20T11:02:46;62.95;41.96;80.96;;
45651;Laerm;31365;48.858;8.530;2023-07-20T11:05:35;60.38;41.46;77.57;;
45651;Laerm;31365;48.858;8.530;2023-07-20T11:08:09;63.05;41.68;81.55;;
45651;Laerm;31365;48.858;8.530;2023-07-20T11:10:38;65.49;43.14;82.83;;
45651;Laerm;31365;48.858;8.530;2023-07-20T11:13:21;58.08;39.34;73.14;;
45651;Laerm;31365;48.858;8.530;2023-07-20T11:16:11;61.04;39.08;77.26;;
45651;Laerm;31365;48.858;8.530;2023-07-20T11:18:40;60.68;39.21;74.43;;
45651;Laerm;31365;48.858;8.530;2023-07-20T11:21:11;63.02;41.14;78.07;;
45651;Laerm;31365;48.858;8.530;2023-07-20T11:23:39;59.61;39.21;76.28;;
45651;Laerm;31365;48.858;8.530;2023-07-20T11:26:09;62.83;43.34;77.40;;
45651;Laerm;31365;48.858;8.530;2023-07-20T11:28:39;64.84;43.54;87.24;;
45651;Laerm;31365;48.858;8.530;2023-07-20T11:31:08;59.25;40.62;74.10;;
45651;Laerm;31365;48.858;8.530;2023-07-20T11:33:38;61.25;37.88;80.83;;
45651;Laerm;31365;48.858;8.530;2023-07-20T11:36:09;61.11;36.20;81.56;;
45651;Laerm;31365;48.858;8.530;2023-07-20T11:38:41;62.36;40.80;73.95;;
45651;Laerm;31365;48.858;8.530;2023-07-20T11:41:11;61.12;39.34;78.87;;
45651;Laerm;31365;48.858;8.530;2023-07-20T11:43:41;59.87;41.38;72.94;;
45651;Laerm;31365;48.858;8.530;2023-07-20T11:46:10;62.01;42.65;78.98;;
45651;Laerm;31365;48.858;8.530;2023-07-20T11:48:41;57.51;40.98;68.08;;
45651;Laerm;31365;48.858;8.530;2023-07-20T11:51:14;59.84;39.34;70.61;;
45651;Laerm;31365;48.858;8.530;2023-07-20T11:53:44;60.00;39.34;78.79;;
45651;Laerm;31365;48.858;8.530;2023-07-20T11:56:15;56.63;39.81;69.92;;
45651;Laerm;31365;48.858;8.530;2023-07-20T11:58:44;59.54;38.67;78.78;;
45651;Laerm;31365;48.858;8.530;2023-07-20T12:01:13;54.00;40.33;67.42;;
45651;Laerm;31365;48.858;8.530;2023-07-20T12:03:44;57.05;41.14;70.42;;
45651;Laerm;31365;48.858;8.530;2023-07-20T12:06:14;58.51;38.18;78.01;;
45651;Laerm;31365;48.858;8.530;2023-07-20T12:08:43;53.49;38.87;66.20;;
45651;Laerm;31365;48.858;8.530;2023-07-20T12:11:12;57.56;40.03;73.85;;
45651;Laerm;31365;48.858;8.530;2023-07-20T12:13:43;58.27;38.95;78.19;;
45651;Laerm;31365;48.858;8.530;2023-07-20T12:16:14;58.94;39.34;77.02;;
45651;Laerm;31365;48.858;8.530;2023-07-20T12:18:45;55.87;38.05;68.67;;
45651;Laerm;31365;48.858;8.530;2023-07-20T12:21:14;60.65;39.46;76.33;;
45651;Laerm;31365;48.858;8.530;2023-07-20T12:23:42;60.08;39.92;79.20;;
45651;Laerm;31365;48.858;8.530;2023-07-20T12:26:14;57.30;40.33;73.54;;
45651;Laerm;31365;48.858;8.530;2023-07-20T12:28:42;56.82;37.12;70.55;;
45651;Laerm;31365;48.858;8.530;2023-07-20T12:31:11;56.71;40.62;73.04;;
45651;Laerm;31365;48.858;8.530;2023-07-20T12:33:41;59.94;38.95;77.55;;
45651;Laerm;31365;48.858;8.530;2023-07-20T12:36:11;57.72;41.30;68.47;;
45651;Laerm;31365;48.858;8.530;2023-07-20T12:38:39;61.05;39.70;79.07;;
45651;Laerm;31365;48.858;8.530;2023-07-20T12:41:10;55.18;36.91;66.31;;
45651;Laerm;31365;48.858;8.530;2023-07-20T12:43:41;59.84;34.31;79.21;;
45651;Laerm;31365;48.858;8.530;2023-07-20T12:46:12;56.38;35.04;72.85;;
45651;Laerm;31365;48.858;8.530;2023-07-20T12:48:41;55.50;26.91;68.30;;
45651;Laerm;31365;48.858;8.530;2023-07-20T12:51:16;56.92;33.90;72.12;;
45651;Laerm;31365;48.858;8.530;2023-07-20T12:53:45;56.81;26.91;69.96;;
45651;Laerm;31365;48.858;8.530;2023-07-20T12:56:13;55.69;39.70;69.06;;
45651;Laerm;31365;48.858;8.530;2023-07-20T12:58:45;64.40;36.69;83.47;;
45651;Laerm;31365;48.858;8.530;2023-07-20T13:01:16;56.95;23.90;67.10;;
45651;Laerm;31365;48.858;8.530;2023-07-20T13:03:44;59.64;39.92;78.72;;
45651;Laerm;31365;48.858;8.530;2023-07-20T13:06:17;57.73;39.78;69.27;;
45651;Laerm;31365;48.858;8.530;2023-07-20T13:11:18;61.67;38.52;80.44;;
45651;Laerm;31365;48.858;8.530;2023-07-20T13:13:46;58.07;23.90;75.50;;
45651;Laerm;31365;48.858;8.530;2023-07-20T13:16:15;57.65;41.55;77.38;;
45651;Laerm;31365;48.858;8.530;2023-07-20T13:18:44;63.62;37.52;88.58;;
45651;Laerm;31365;48.858;8.530;2023-07-20T13:21:12;59.18;39.81;75.58;;
45651;Laerm;31365;48.858;8.530;2023-07-20T13:23:42;57.77;42.03;72.04;;
45651;Laerm;31365;48.858;8.530;2023-07-20T13:26:10;57.59;37.88;70.57;;
45651;Laerm;31365;48.858;8.530;2023-07-20T13:28:39;62.56;40.98;80.81;;
45651;Laerm;31365;48.858;8.530;2023-07-20T13:31:09;55.85;36.91;74.60;;
45651;Laerm;31365;48.858;8.530;2023-07-20T13:33:41;58.11;40.62;69.86;;
45651;Laerm;31365;48.858;8.530;2023-07-20T13:36:10;63.83;26.91;85.19;;
45651;Laerm;31365;48.858;8.530;2023-07-20T13:38:38;61.93;41.06;81.18;;
45651;Laerm;31365;48.858;8.530;2023-07-20T13:41:08;58.55;29.92;76.78;;
45651;Laerm;31365;48.858;8.530;2023-07-20T13:43:36;55.81;29.92;68.40;;
45651;Laerm;31365;48.858;8.530;2023-07-20T13:46:05;62.64;42.47;79.85;;
45651;Laerm;31365;48.858;8.530;2023-07-20T13:48:34;57.77;40.23;72.03;;
45651;Laerm;31365;48.858;8.530;2023-07-20T13:51:03;57.13;38.37;70.68;;
45651;Laerm;31365;48.858;8.530;2023-07-20T13:53:32;55.91;35.66;67.01;;
45651;Laerm;31365;48.858;8.530;2023-07-20T13:56:03;57.22;31.68;72.80;;
45651;Laerm;31365;48.858;8.530;2023-07-20T13:58:36;67.21;33.90;86.16;;
45651;Laerm;31365;48.858;8.530;2023-07-20T14:01:06;59.77;36.45;81.22;;
45651;Laerm;31365;48.858;8.530;2023-07-20T14:03:35;59.96;35.04;79.06;;
45651;Laerm;31365;48.858;8.530;2023-07-20T14:06:04;60.67;42.88;76.29;;
45651;Laerm;31365;48.858;8.530;2023-07-20T14:08:35;59.65;26.91;75.33;;
45651;Laerm;31365;48.858;8.530;2023-07-20T14:11:04;62.60;29.92;79.91;;
45651;Laerm;31365;48.858;8.530;2023-07-20T14:13:37;59.01;36.45;73.88;;
45651;Laerm;31365;48.858;8.530;2023-07-20T14:18:42;57.49;5.00;73.50;;
45651;Laerm;31365;48.858;8.530;2023-07-20T14:23:45;55.80;34.69;66.89;;
45651;Laerm;31365;48.858;8.530;2023-07-20T14:26:14;58.00;35.36;69.03;;
45651;Laerm;31365;48.858;8.530;2023-07-20T14:28:44;60.81;35.36;80.57;;
45651;Laerm;31365;48.858;8.530;2023-07-20T14:31:12;61.44;5.00;78.57;;
45651;Laerm;31365;48.858;8.530;2023-07-20T14:33:41;57.18;40.98;70.06;;
45651;Laerm;31365;48.858;8.530;2023-07-20T14:36:10;57.71;41.46;71.83;;